Time;durP1;ratioP1;P1;durP2;ratioP2;P2;SDS_P1;SDS_P2;PMS_P1;PMS_P2;Temp;Humidity;BMP_temperature;BMP_pressure;BME280_temperature;BME280_humidity;BME280_pressure;Samples;Min_cycle;Max_cycle;Signal;HPM_P1;HPM_P2
2024/03/01 00:01:33;;;;;;;5.68;3.72;;;8.70;99.90;;;;;;5082851;28;20047;-66
2024/03/01 00:03:59;;;;;;;4.07;3.60;;;8.70;99.90;;;;;;5082178;28;20035;-66
2024/03/01 00:06:24;;;;;;;4.55;4.10;;;8.70;99.90;;;;;;5079164;28;20040;-66
2024/03/01 00:08:50;;;;;;;6.10;3.72;;;8.70;99.90;;;;;;5080822;28;20059;-66
2024/03/01 00:11:16;;;;;;;5.63;3.75;;;8.70;99.90;;;;;;5081515;28;20031;-66
2024/03/01 00:13:42;;;;;;;5.00;3.65;;;8.70;99.90;;;;;;5086350;28;20065;-66
2024/03/01 00:16:08;;;;;;;7.25;3.53;;;8.70;99.90;;;;;;5085469;28;20056;-66
2024/03/01 00:18:34;;;;;;;4.40;3.13;;;8.70;99.90;;;;;;5083694;28;20041;-66
2024/03/01 00:21:00;;;;;;;9.32;4.00;;;8.70;99.90;;;;;;5078346;28;20074;-66
2024/03/01 00:23:28;;;;;;;3.95;3.55;;;8.80;99.90;;;;;;5081131;28;20032;-66
2024/03/01 00:25:54;;;;;;;4.68;3.45;;;8.70;99.90;;;;;;5081572;28;20047;-66
2024/03/01 00:28:20;;;;;;;6.13;3.45;;;8.70;99.90;;;;;;5080208;28;20123;-66
2024/03/01 00:30:46;;;;;;;6.25;3.60;;;8.70;99.90;;;;;;5061643;28;20167;-66
2024/03/01 00:33:12;;;;;;;5.32;3.45;;;8.70;99.90;;;;;;5083830;28;20145;-66
2024/03/01 00:35:38;;;;;;;4.85;3.38;;;8.70;99.90;;;;;;5080216;28;20027;-66
2024/03/01 00:38:03;;;;;;;3.42;3.13;;;8.80;99.90;;;;;;5080291;28;20047;-66
2024/03/01 00:40:32;;;;;;;7.85;3.60;;;8.70;99.90;;;;;;5077574;28;20044;-66
2024/03/01 00:42:58;;;;;;;3.95;3.45;;;8.80;99.90;;;;;;5082424;28;20385;-66
2024/03/01 00:45:24;;;;;;;5.40;3.78;;;8.70;99.90;;;;;;5082017;28;20032;-66
2024/03/01 00:47:50;;;;;;;4.25;2.97;;;8.70;99.90;;;;;;5082106;28;20041;-66
2024/03/01 00:50:19;;;;;;;5.35;3.97;;;8.70;99.90;;;;;;5085638;28;20032;-66
2024/03/01 00:52:45;;;;;;;4.28;3.80;;;8.70;99.90;;;;;;5076767;28;20048;-66
2024/03/01 00:55:11;;;;;;;3.95;3.50;;;8.80;99.90;;;;;;5079742;28;20055;-66
2024/03/01 00:57:36;;;;;;;4.97;3.70;;;8.80;99.90;;;;;;5078270;28;20611;-66
2024/03/01 01:00:09;;;;;;;5.70;3.42;;;8.80;99.90;;;;;;5078716;28;20044;-66
2024/03/01 01:02:37;;;;;;;6.32;3.45;;;8.80;99.90;;;;;;5077407;28;20050;-66
2024/03/01 01:05:03;;;;;;;5.57;3.83;;;8.80;99.90;;;;;;5080465;28;20358;-66
2024/03/01 01:07:29;;;;;;;6.22;3.47;;;8.80;99.90;;;;;;5108646;27;20050;-66
2024/03/01 01:09:54;;;;;;;5.13;3.92;;;8.80;99.90;;;;;;5078761;28;20585;-66
2024/03/01 01:12:20;;;;;;;4.07;3.58;;;8.80;99.90;;;;;;5080503;28;20086;-66
2024/03/01 01:14:45;;;;;;;5.15;3.72;;;8.80;99.90;;;;;;5113923;27;20061;-66
2024/03/01 01:17:11;;;;;;;6.25;3.78;;;8.90;99.90;;;;;;5081426;28;20067;-66
2024/03/01 01:19:37;;;;;;;4.03;3.58;;;8.90;99.90;;;;;;5079088;28;20386;-66
2024/03/01 01:22:02;;;;;;;5.65;3.88;;;8.80;99.90;;;;;;5076760;28;20046;-66
2024/03/01 01:24:28;;;;;;;4.78;3.67;;;8.90;99.90;;;;;;5080593;28;20083;-66
2024/03/01 01:26:54;;;;;;;5.80;3.85;;;8.90;99.90;;;;;;5081707;28;20032;-66
2024/03/01 01:29:19;;;;;;;5.57;3.70;;;8.80;99.90;;;;;;5079652;28;20044;-66
2024/03/01 01:31:46;;;;;;;7.35;4.15;;;8.80;99.90;;;;;;5076908;28;20060;-66
2024/03/01 01:34:12;;;;;;;5.85;3.88;;;8.80;99.90;;;;;;5081641;28;20058;-66
2024/03/01 01:36:38;;;;;;;5.00;4.03;;;8.80;99.90;;;;;;5078786;28;20040;-66
2024/03/01 01:39:07;;;;;;;5.68;3.88;;;8.80;99.90;;;;;;5077722;28;20085;-66
2024/03/01 01:41:34;;;;;;;4.28;3.85;;;8.80;99.90;;;;;;5079321;28;20090;-66
2024/03/01 01:44:00;;;;;;;4.07;3.70;;;8.80;99.90;;;;;;5083808;28;20496;-66
2024/03/01 01:46:26;;;;;;;6.03;3.88;;;8.80;99.90;;;;;;5078805;28;20040;-66
2024/03/01 01:48:51;;;;;;;5.75;4.10;;;8.80;99.90;;;;;;5077419;28;20039;-66
2024/03/01 01:51:19;;;;;;;7.65;4.63;;;8.80;99.90;;;;;;5081565;28;20067;-66
2024/03/01 01:53:45;;;;;;;5.20;4.00;;;8.80;99.90;;;;;;5106986;28;20505;-66
2024/03/01 01:56:13;;;;;;;8.40;3.97;;;8.80;99.90;;;;;;5077218;28;20549;-66
2024/03/01 01:58:40;;;;;;;5.00;4.07;;;8.80;99.90;;;;;;5075936;28;20052;-66
2024/03/01 02:01:08;;;;;;;4.25;3.85;;;8.80;99.90;;;;;;5076664;28;20111;-66
2024/03/01 02:03:40;;;;;;;4.03;3.63;;;8.80;99.90;;;;;;5081000;28;20549;-66
2024/03/01 02:06:06;;;;;;;10.60;5.50;;;8.80;99.90;;;;;;5078317;28;20098;-66
2024/03/01 02:08:33;;;;;;;5.95;4.72;;;8.70;99.90;;;;;;5081121;28;20099;-66
2024/03/01 02:11:00;;;;;;;7.90;4.45;;;8.80;99.90;;;;;;5081243;28;20054;-66
2024/03/01 02:13:25;;;;;;;5.25;4.15;;;8.70;99.90;;;;;;5062879;28;20028;-66
2024/03/01 02:15:52;;;;;;;5.70;5.05;;;8.80;99.90;;;;;;5109867;27;21455;-66
2024/03/01 02:18:18;;;;;;;4.95;4.30;;;8.70;99.90;;;;;;5085489;28;20397;-66
2024/03/01 02:21:06;;;;;;;5.47;4.20;;;8.70;99.90;;;;;;5081740;28;20043;-66
2024/03/01 02:23:32;;;;;;;5.43;4.50;;;8.80;99.90;;;;;;5083210;28;20055;-66
2024/03/01 02:25:58;;;;;;;6.38;4.43;;;8.80;99.90;;;;;;5081813;28;20044;-66
2024/03/01 02:28:23;;;;;;;5.38;4.30;;;8.70;99.90;;;;;;5085482;28;20069;-66
2024/03/01 02:30:52;;;;;;;5.05;4.55;;;8.80;99.90;;;;;;5085842;28;20394;-66
2024/03/01 02:33:21;;;;;;;7.22;4.90;;;8.70;99.90;;;;;;5084117;28;20041;-66
2024/03/01 02:35:47;;;;;;;5.00;4.00;;;8.70;99.90;;;;;;5082682;28;20488;-66
2024/03/01 02:38:13;;;;;;;8.35;4.55;;;8.70;99.90;;;;;;5081817;28;20043;-66
2024/03/01 02:40:39;;;;;;;5.55;4.63;;;8.70;99.90;;;;;;5080419;28;20370;-66
2024/03/01 02:43:06;;;;;;;6.32;4.70;;;8.60;99.90;;;;;;5084189;28;20054;-66
2024/03/01 02:45:33;;;;;;;5.20;4.15;;;8.60;99.90;;;;;;5081026;28;20161;-66
2024/03/01 02:47:58;;;;;;;5.00;4.50;;;8.60;99.90;;;;;;5086137;28;20036;-66
2024/03/01 02:50:24;;;;;;;6.57;4.78;;;8.60;99.90;;;;;;5084980;28;20036;-66
2024/03/01 02:52:49;;;;;;;4.57;4.18;;;8.60;99.90;;;;;;5085199;28;20036;-66
2024/03/01 02:55:20;;;;;;;6.25;4.60;;;8.50;99.90;;;;;;5083221;28;20067;-66
2024/03/01 02:57:52;;;;;;;5.47;4.72;;;8.50;99.90;;;;;;5081662;28;20489;-66
2024/03/01 03:00:19;;;;;;;6.88;4.47;;;8.40;99.90;;;;;;5083412;28;20425;-66
2024/03/01 03:02:45;;;;;;;6.25;5.00;;;8.40;99.90;;;;;;5083604;28;20048;-66
2024/03/01 03:05:11;;;;;;;4.85;4.25;;;8.40;99.90;;;;;;5081415;28;20115;-66
2024/03/01 03:07:37;;;;;;;6.65;5.10;;;8.30;99.90;;;;;;5081135;28;20132;-66
2024/03/01 03:10:04;;;;;;;6.47;5.00;;;8.30;99.90;;;;;;5083115;28;20497;-66
2024/03/01 03:12:29;;;;;;;9.95;6.07;;;8.30;99.90;;;;;;5086488;28;20046;-66
2024/03/01 03:14:55;;;;;;;8.32;5.63;;;8.30;99.90;;;;;;5084355;28;20044;-66
2024/03/01 03:17:22;;;;;;;6.68;5.68;;;8.20;99.90;;;;;;5084642;28;20047;-66
2024/03/01 03:19:49;;;;;;;5.93;5.32;;;8.30;99.90;;;;;;5082854;28;20052;-66
2024/03/01 03:22:15;;;;;;;9.55;6.15;;;8.20;99.90;;;;;;5082368;28;20398;-66
2024/03/01 03:24:41;;;;;;;7.00;6.35;;;8.20;99.90;;;;;;5085122;28;20052;-66
2024/03/01 03:27:07;;;;;;;9.77;6.03;;;8.20;99.90;;;;;;5087455;28;20120;-66
2024/03/01 03:29:33;;;;;;;7.32;6.63;;;8.20;99.90;;;;;;5086144;28;20040;-66
2024/03/01 03:31:59;;;;;;;11.30;6.43;;;8.20;99.90;;;;;;5084223;28;20039;-66
2024/03/01 03:34:24;;;;;;;8.10;6.95;;;8.20;99.90;;;;;;5083243;28;20081;-66
2024/03/01 03:36:50;;;;;;;7.90;6.18;;;8.10;99.90;;;;;;5106481;27;20076;-66
2024/03/01 03:39:16;;;;;;;7.85;7.05;;;8.20;99.90;;;;;;5078066;28;20040;-66
2024/03/01 03:41:43;;;;;;;7.82;6.85;;;8.10;99.90;;;;;;5081936;28;20040;-66
2024/03/01 03:44:08;;;;;;;8.40;6.55;;;8.20;99.90;;;;;;5084597;28;20032;-66
2024/03/01 03:46:35;;;;;;;8.95;7.05;;;8.20;99.90;;;;;;5083392;28;20048;-66
2024/03/01 03:49:01;;;;;;;8.55;6.53;;;8.20;99.90;;;;;;5079820;28;20044;-66
2024/03/01 03:51:28;;;;;;;8.20;6.80;;;8.10;99.90;;;;;;5110602;27;20505;-66
2024/03/01 03:53:56;;;;;;;9.95;8.38;;;8.10;99.90;;;;;;5081692;28;20032;-66
2024/03/01 03:56:24;;;;;;;7.53;6.72;;;8.10;99.90;;;;;;5082257;28;20028;-66
2024/03/01 03:58:51;;;;;;;11.30;8.35;;;8.10;99.90;;;;;;5081261;28;20901;-66
2024/03/01 04:01:17;;;;;;;11.82;8.80;;;8.10;99.90;;;;;;5113588;27;20045;-66
2024/03/01 04:03:43;;;;;;;10.07;7.93;;;8.00;99.90;;;;;;5082741;28;20462;-66
2024/03/01 04:06:08;;;;;;;10.15;7.65;;;8.10;99.90;;;;;;5085688;28;20119;-66
2024/03/01 04:08:38;;;;;;;10.85;8.20;;;8.10;99.90;;;;;;5079813;28;20089;-66
2024/03/01 04:11:05;;;;;;;7.93;7.13;;;8.10;99.90;;;;;;5082224;28;20063;-66
2024/03/01 04:13:36;;;;;;;11.40;9.00;;;8.10;99.90;;;;;;5085069;28;20086;-66
2024/03/01 04:16:06;;;;;;;11.18;8.45;;;8.10;99.90;;;;;;5082728;28;20432;-66
2024/03/01 04:18:37;;;;;;;8.98;7.65;;;8.10;99.90;;;;;;5079808;28;20432;-66
2024/03/01 04:21:05;;;;;;;8.90;7.95;;;8.10;99.90;;;;;;5080143;28;20048;-66
2024/03/01 04:23:34;;;;;;;10.60;8.77;;;8.10;99.90;;;;;;5079912;28;20127;-66
2024/03/01 04:25:59;;;;;;;9.30;8.43;;;8.10;99.90;;;;;;5082519;28;20382;-66
2024/03/01 04:28:28;;;;;;;10.75;9.00;;;8.10;99.90;;;;;;5061273;28;20051;-66
2024/03/01 04:30:54;;;;;;;9.88;8.18;;;8.10;99.90;;;;;;5080676;28;20056;-66
2024/03/01 04:33:20;;;;;;;9.73;8.60;;;8.20;99.90;;;;;;5082886;28;20075;-66
2024/03/01 04:35:46;;;;;;;12.52;9.55;;;8.20;99.90;;;;;;5086018;28;20440;-66
2024/03/01 04:38:12;;;;;;;9.77;8.77;;;8.20;99.90;;;;;;5081480;28;20044;-66
2024/03/01 04:40:38;;;;;;;11.35;8.63;;;8.20;99.90;;;;;;5083318;28;20048;-66
2024/03/01 04:43:05;;;;;;;18.67;8.95;;;8.20;99.90;;;;;;5079904;28;20035;-66
2024/03/01 04:45:30;;;;;;;10.32;8.80;;;8.30;99.90;;;;;;5079720;28;20059;-66
2024/03/01 04:47:56;;;;;;;12.50;9.43;;;8.40;99.90;;;;;;5079068;28;20037;-66
2024/03/01 04:50:22;;;;;;;13.07;9.57;;;8.40;99.90;;;;;;5078970;28;20036;-66
2024/03/01 04:52:48;;;;;;;13.63;8.63;;;8.40;99.90;;;;;;5082497;28;20028;-66
2024/03/01 04:55:14;;;;;;;14.57;9.50;;;8.40;99.90;;;;;;5082488;28;20064;-66
2024/03/01 04:57:40;;;;;;;11.15;9.27;;;8.40;99.90;;;;;;5078946;28;20042;-66
2024/03/01 05:00:12;;;;;;;11.90;8.48;;;8.50;99.90;;;;;;5077541;28;20040;-66
2024/03/01 05:02:42;;;;;;;11.25;9.15;;;8.50;99.90;;;;;;5064667;28;20044;-66
2024/03/01 05:05:09;;;;;;;11.90;9.05;;;8.50;99.90;;;;;;5078506;28;20044;-66
2024/03/01 05:07:34;;;;;;;14.32;8.73;;;8.50;99.90;;;;;;5080123;28;20035;-66
2024/03/01 05:10:00;;;;;;;11.07;8.73;;;8.50;99.90;;;;;;5078667;28;20032;-66
2024/03/01 05:12:26;;;;;;;9.95;8.02;;;8.50;99.90;;;;;;5081595;28;20064;-66
2024/03/01 05:14:51;;;;;;;10.57;9.23;;;8.50;99.90;;;;;;5085283;28;20043;-66
2024/03/01 05:17:17;;;;;;;14.82;9.02;;;8.60;99.90;;;;;;5080767;28;20127;-66
2024/03/01 05:19:46;;;;;;;10.93;8.43;;;8.50;99.90;;;;;;5077707;28;20040;-66
2024/03/01 05:22:14;;;;;;;10.38;9.23;;;8.70;99.90;;;;;;5082711;28;20062;-66
2024/03/01 05:24:40;;;;;;;11.48;9.00;;;8.70;99.90;;;;;;5109733;27;20037;-66
2024/03/01 05:27:12;;;;;;;9.55;8.40;;;8.70;99.90;;;;;;5082954;28;20058;-66
2024/03/01 05:29:38;;;;;;;13.25;8.60;;;8.70;99.90;;;;;;5078355;28;20055;-66
2024/03/01 05:32:04;;;;;;;11.48;8.45;;;8.70;99.90;;;;;;5080690;28;20596;-66
2024/03/01 05:34:30;;;;;;;9.77;8.05;;;8.80;99.90;;;;;;5078385;28;20066;-66
2024/03/01 05:36:56;;;;;;;13.10;8.95;;;8.70;99.90;;;;;;5078198;28;20040;-66
2024/03/01 05:39:22;;;;;;;9.63;8.32;;;8.80;99.90;;;;;;5075492;28;20039;-66
2024/03/01 05:41:48;;;;;;;9.77;8.77;;;8.70;99.90;;;;;;5077048;28;20402;-66
2024/03/01 05:44:14;;;;;;;10.18;8.95;;;8.80;99.90;;;;;;5075295;28;20044;-66
2024/03/01 05:46:40;;;;;;;10.43;8.27;;;8.70;99.90;;;;;;5079970;28;20059;-66
2024/03/01 05:49:09;;;;;;;9.82;8.18;;;8.80;99.90;;;;;;5079676;28;20044;-66
2024/03/01 05:51:35;;;;;;;10.13;8.35;;;8.70;99.90;;;;;;5077302;28;20032;-66
2024/03/01 05:54:01;;;;;;;10.93;9.13;;;8.70;99.90;;;;;;5077380;28;20070;-66
2024/03/01 05:56:27;;;;;;;10.20;9.15;;;8.70;99.90;;;;;;5073758;28;20058;-66
2024/03/01 05:58:53;;;;;;;10.68;8.73;;;8.70;99.90;;;;;;5081723;28;20037;-66
2024/03/01 06:01:20;;;;;;;8.85;7.95;;;8.70;99.90;;;;;;5076151;28;20047;-66
2024/03/01 06:03:47;;;;;;;10.73;9.18;;;8.60;99.90;;;;;;5073255;28;20131;-66
2024/03/01 06:06:20;;;;;;;11.07;9.80;;;8.70;99.90;;;;;;5101666;28;20216;-66
2024/03/01 06:08:46;;;;;;;11.18;8.25;;;8.70;99.90;;;;;;5077838;28;20105;-66
2024/03/01 06:11:12;;;;;;;11.88;8.90;;;8.70;99.90;;;;;;5076753;28;20068;-66
2024/03/01 06:13:38;;;;;;;11.50;9.70;;;8.60;99.90;;;;;;5107039;27;20443;-66
2024/03/01 06:16:05;;;;;;;10.32;8.77;;;8.70;99.90;;;;;;5080250;28;20085;-66
2024/03/01 06:18:30;;;;;;;10.15;9.15;;;8.60;99.90;;;;;;5076973;28;20056;-66
2024/03/01 06:20:56;;;;;;;9.73;8.10;;;8.70;99.90;;;;;;5084105;28;20048;-66
2024/03/01 06:23:22;;;;;;;11.60;9.77;;;8.70;99.90;;;;;;5080282;28;20036;-66
2024/03/01 06:25:47;;;;;;;10.68;9.25;;;8.70;99.90;;;;;;5085140;28;20036;-66
2024/03/01 06:28:14;;;;;;;9.45;8.43;;;8.70;99.90;;;;;;5075648;28;20035;-66
2024/03/01 06:30:40;;;;;;;9.15;8.10;;;8.60;99.90;;;;;;5083438;28;20495;-66
2024/03/01 06:33:05;;;;;;;9.65;7.90;;;8.60;99.90;;;;;;5067631;28;20074;-66
2024/03/01 06:35:31;;;;;;;8.82;7.93;;;8.60;99.90;;;;;;5074148;28;20165;-66
2024/03/01 06:37:57;;;;;;;8.80;7.90;;;8.70;99.90;;;;;;5081398;28;20178;-66
2024/03/01 06:40:22;;;;;;;10.75;8.82;;;8.60;99.90;;;;;;5079363;28;20458;-66
2024/03/01 06:42:48;;;;;;;10.35;8.05;;;8.60;99.90;;;;;;5078956;28;20466;-66
2024/03/01 06:45:14;;;;;;;10.40;8.55;;;8.60;99.90;;;;;;5077827;28;20043;-66
2024/03/01 06:47:40;;;;;;;9.32;7.95;;;8.60;99.90;;;;;;5082929;28;20113;-66
2024/03/01 06:50:08;;;;;;;9.15;8.10;;;8.60;99.90;;;;;;5079846;28;20044;-66
2024/03/01 06:52:35;;;;;;;8.10;7.30;;;8.50;99.90;;;;;;5077158;28;20045;-66
2024/03/01 06:55:00;;;;;;;8.23;7.43;;;8.50;99.90;;;;;;5080630;28;20032;-66
2024/03/01 06:57:26;;;;;;;6.07;5.47;;;8.60;99.90;;;;;;5077540;28;20043;-66
2024/03/01 06:59:51;;;;;;;4.35;3.95;;;8.40;99.90;;;;;;5076654;28;20822;-66
2024/03/01 07:02:17;;;;;;;2.40;1.48;;;8.40;99.90;;;;;;5080356;28;20383;-66
2024/03/01 07:04:43;;;;;;;1.77;1.10;;;8.30;99.90;;;;;;5077984;28;20093;-66
2024/03/01 07:07:08;;;;;;;1.80;1.13;;;8.30;99.90;;;;;;5079858;28;20133;-66
2024/03/01 07:09:34;;;;;;;0.80;0.50;;;8.10;99.90;;;;;;5078511;28;20040;-66
2024/03/01 07:12:00;;;;;;;0.75;0.40;;;8.00;99.90;;;;;;5079146;28;20423;-66
2024/03/01 07:14:26;;;;;;;0.90;0.60;;;7.90;99.90;;;;;;5083099;28;20127;-66
2024/03/01 07:16:51;;;;;;;0.60;0.47;;;7.80;99.90;;;;;;5085093;28;20055;-66
2024/03/01 07:19:17;;;;;;;0.75;0.30;;;7.70;99.90;;;;;;5080480;28;20039;-66
2024/03/01 07:21:43;;;;;;;1.60;0.40;;;7.70;99.90;;;;;;5083065;28;20051;-66
2024/03/01 07:24:09;;;;;;;1.00;0.22;;;7.70;99.90;;;;;;5087310;28;20036;-66
2024/03/01 07:26:34;;;;;;;1.02;0.30;;;7.60;99.90;;;;;;5085632;28;20493;-66
2024/03/01 07:29:00;;;;;;;2.25;0.38;;;7.60;99.90;;;;;;5081902;28;20048;-66
2024/03/01 07:31:26;;;;;;;0.52;0.25;;;7.50;99.90;;;;;;5082813;28;20611;-66
2024/03/01 07:33:52;;;;;;;2.55;0.40;;;7.50;99.90;;;;;;5083054;28;20501;-66
2024/03/01 07:36:17;;;;;;;1.75;0.20;;;7.50;99.90;;;;;;5083172;28;20493;-66
2024/03/01 07:38:43;;;;;;;1.83;0.28;;;7.50;99.90;;;;;;5082107;28;20534;-66
2024/03/01 07:41:09;;;;;;;0.82;0.40;;;7.50;99.90;;;;;;5070781;28;20098;-66
2024/03/01 07:43:34;;;;;;;1.95;0.90;;;7.40;99.90;;;;;;5079255;28;20043;-66
2024/03/01 07:46:00;;;;;;;1.08;0.47;;;7.40;99.90;;;;;;5113221;27;20089;-66
2024/03/01 07:48:26;;;;;;;1.52;0.40;;;7.40;99.90;;;;;;5084420;28;20036;-66
2024/03/01 07:50:52;;;;;;;2.15;0.45;;;7.30;99.90;;;;;;5079720;28;20044;-66
2024/03/01 07:53:17;;;;;;;3.30;0.43;;;7.30;99.90;;;;;;5079906;28;20044;-66
2024/03/01 07:55:43;;;;;;;3.58;0.55;;;7.40;99.90;;;;;;5082549;28;20032;-66
2024/03/01 07:58:09;;;;;;;2.15;0.50;;;7.30;99.90;;;;;;5085352;28;20059;-66
2024/03/01 08:00:35;;;;;;;3.53;1.08;;;7.40;99.90;;;;;;5081121;28;20032;-66
2024/03/01 08:03:07;;;;;;;4.70;0.50;;;7.40;99.90;;;;;;5080427;28;20036;-66
2024/03/01 08:05:34;;;;;;;2.55;0.50;;;7.40;99.90;;;;;;5077539;28;20119;-66
2024/03/01 08:08:00;;;;;;;4.03;1.17;;;7.50;99.90;;;;;;5080094;28;20079;-66
2024/03/01 08:10:30;;;;;;;2.63;0.43;;;7.60;99.90;;;;;;5060710;28;20064;-65
2024/03/01 08:12:56;;;;;;;1.35;0.40;;;7.60;99.90;;;;;;5080001;28;20062;-66
2024/03/01 08:15:28;;;;;;;0.70;0.30;;;7.60;99.90;;;;;;5076462;28;20665;-66
2024/03/01 08:17:54;;;;;;;2.05;0.50;;;7.70;99.90;;;;;;5078686;28;20037;-66
2024/03/01 08:20:49;;;;;;;4.53;0.47;;;7.70;99.90;;;;;;5074583;28;20044;-66
2024/03/01 08:23:15;;;;;;;2.92;0.75;;;7.90;99.90;;;;;;5081403;28;20067;-66
2024/03/01 08:25:41;;;;;;;0.80;0.28;;;7.90;99.90;;;;;;5085468;28;20155;-66
2024/03/01 08:28:09;;;;;;;1.10;0.20;;;7.90;99.90;;;;;;5078947;28;20048;-66
2024/03/01 08:30:46;;;;;;;1.52;0.50;;;7.80;99.90;;;;;;5078734;28;20047;-66
2024/03/01 08:33:17;;;;;;;2.13;0.45;;;7.80;99.90;;;;;;5059648;28;20080;-66
2024/03/01 08:35:42;;;;;;;3.78;0.60;;;7.70;99.90;;;;;;5072790;28;20036;-66
2024/03/01 08:38:45;;;;;;;2.47;0.30;;;7.70;99.90;;;;;;5075890;28;20149;-66
2024/03/01 08:41:11;;;;;;;1.00;0.28;;;7.70;99.90;;;;;;5073881;28;20045;-66
2024/03/01 08:43:39;;;;;;;2.05;0.30;;;7.70;99.90;;;;;;5073250;28;20070;-66
2024/03/01 08:46:05;;;;;;;2.78;0.40;;;7.70;99.90;;;;;;5075957;28;20048;-66
2024/03/01 08:48:32;;;;;;;3.22;0.60;;;7.70;99.90;;;;;;5073884;28;20570;-66
2024/03/01 08:50:59;;;;;;;1.05;0.35;;;7.70;99.90;;;;;;5078225;28;20051;-66
2024/03/01 08:53:43;;;;;;;4.78;0.73;;;7.70;99.90;;;;;;5073996;28;20036;-66
2024/03/01 08:56:17;;;;;;;3.03;0.95;;;7.80;99.90;;;;;;5109926;27;20040;-66
2024/03/01 08:58:43;;;;;;;1.40;0.73;;;7.80;99.90;;;;;;5075129;28;20043;-66
2024/03/01 09:01:44;;;;;;;3.75;0.52;;;7.80;99.90;;;;;;5077689;28;20071;-66
2024/03/01 09:04:33;;;;;;;5.18;0.90;;;7.90;99.90;;;;;;5077419;28;20306;-66
2024/03/01 09:07:16;;;;;;;3.03;0.60;;;8.00;99.90;;;;;;5076212;28;20407;-66
2024/03/01 09:09:42;;;;;;;3.28;0.73;;;7.90;99.90;;;;;;5074126;28;20051;-66
2024/03/01 09:12:11;;;;;;;2.03;0.90;;;7.90;99.90;;;;;;5076737;28;20119;-66
2024/03/01 09:14:36;;;;;;;5.00;1.10;;;7.90;99.90;;;;;;5078961;28;20052;-66
2024/03/01 09:17:05;;;;;;;2.65;1.23;;;8.00;99.90;;;;;;5075993;28;20059;-66
2024/03/01 09:19:39;;;;;;;2.55;1.25;;;8.00;99.90;;;;;;5075557;28;20445;-66
2024/03/01 09:22:05;;;;;;;3.22;1.33;;;8.00;99.90;;;;;;5076774;28;20494;-66
2024/03/01 09:24:36;;;;;;;6.07;1.25;;;8.10;99.90;;;;;;5073332;28;20159;-66
2024/03/01 09:27:15;;;;;;;4.00;1.17;;;8.10;99.90;;;;;;5078137;28;20055;-66
2024/03/01 09:29:44;;;;;;;3.40;1.30;;;8.30;99.90;;;;;;5073965;28;20044;-66
2024/03/01 09:32:10;;;;;;;2.20;1.08;;;8.40;99.90;;;;;;5071290;28;20378;-66
2024/03/01 09:34:38;;;;;;;3.90;1.05;;;8.50;99.90;;;;;;5074008;28;20040;-66
2024/03/01 09:37:08;;;;;;;2.92;1.08;;;8.60;99.90;;;;;;5074606;28;20555;-66
2024/03/01 09:39:34;;;;;;;2.97;1.50;;;8.60;99.90;;;;;;5075535;28;20048;-66
2024/03/01 09:42:13;;;;;;;4.82;1.58;;;8.70;99.90;;;;;;5075051;28;20378;-66
2024/03/01 09:45:16;;;;;;;2.97;1.30;;;8.70;99.90;;;;;;5072536;28;20102;-66
2024/03/01 09:48:01;;;;;;;3.08;1.10;;;8.50;99.90;;;;;;5074261;28;20036;-66
2024/03/01 09:50:38;;;;;;;2.83;1.08;;;8.40;99.90;;;;;;5072748;28;20049;-66
2024/03/01 09:53:13;;;;;;;1.40;0.90;;;8.50;99.90;;;;;;5063480;28;20051;-66
2024/03/01 09:55:50;;;;;;;2.47;1.48;;;8.40;99.90;;;;;;5075660;28;20408;-66
2024/03/01 09:58:26;;;;;;;3.72;1.15;;;8.40;99.90;;;;;;5076887;28;20566;-66
2024/03/01 10:01:02;;;;;;;2.28;0.80;;;8.60;99.90;;;;;;5074904;28;20040;-66
2024/03/01 10:03:55;;;;;;;2.38;0.80;;;8.70;99.90;;;;;;5073148;28;20053;-68
2024/03/01 10:06:33;;;;;;;5.65;0.63;;;8.90;99.90;;;;;;5066727;28;20056;-66
2024/03/01 10:09:13;;;;;;;2.50;0.35;;;9.20;99.90;;;;;;5055100;28;20036;-66
2024/03/01 10:12:04;;;;;;;2.22;0.50;;;9.20;99.90;;;;;;5107214;28;20054;-66
2024/03/01 10:15:02;;;;;;;2.75;0.38;;;9.30;99.90;;;;;;5078283;28;20085;-65
2024/03/01 10:17:52;;;;;;;3.22;0.73;;;9.40;99.90;;;;;;5077394;28;20036;-66
2024/03/01 10:20:36;;;;;;;1.75;0.65;;;9.40;99.90;;;;;;5074471;28;20040;-66
2024/03/01 10:23:16;;;;;;;3.17;0.77;;;9.60;99.90;;;;;;5075529;28;20062;-66
2024/03/01 10:25:55;;;;;;;2.33;0.70;;;9.80;99.90;;;;;;5074798;28;21253;-66
2024/03/01 10:28:38;;;;;;;4.82;1.55;;;9.80;99.90;;;;;;5076743;28;20051;-66
2024/03/01 10:31:15;;;;;;;3.92;1.35;;;9.90;99.90;;;;;;5077437;28;20040;-66
2024/03/01 10:33:53;;;;;;;1.80;0.93;;;9.90;99.90;;;;;;5076978;28;20044;-66
2024/03/01 10:36:51;;;;;;;3.58;1.05;;;9.90;99.90;;;;;;5077093;28;20534;-66
2024/03/01 10:39:45;;;;;;;1.33;0.88;;;10.00;99.90;;;;;;5108671;27;20056;-66
2024/03/01 10:42:19;;;;;;;3.53;1.17;;;10.20;99.90;;;;;;5086647;28;20048;-66
2024/03/01 10:45:03;;;;;;;2.70;0.88;;;10.20;99.90;;;;;;5079466;28;20088;-66
2024/03/01 10:47:30;;;;;;;1.77;0.75;;;10.70;99.90;;;;;;5077116;28;20044;-66
2024/03/01 10:49:58;;;;;;;2.88;0.90;;;10.50;99.90;;;;;;5063806;28;20043;-65
2024/03/01 10:52:32;;;;;;;2.85;0.82;;;10.70;99.90;;;;;;5080705;28;20480;-66
2024/03/01 10:54:59;;;;;;;4.30;0.95;;;10.80;99.90;;;;;;5080915;28;20048;-66
2024/03/01 10:57:26;;;;;;;2.22;0.80;;;10.80;99.90;;;;;;5075990;28;20127;-67
2024/03/01 11:00:06;;;;;;;4.15;1.20;;;10.50;99.90;;;;;;5079154;28;20036;-67
2024/03/01 11:03:05;;;;;;;4.15;1.20;;;10.40;99.90;;;;;;5078775;28;20044;-67
2024/03/01 11:05:49;;;;;;;4.93;1.00;;;10.30;99.90;;;;;;5081270;28;20085;-66
2024/03/01 11:08:38;;;;;;;4.18;1.30;;;10.30;99.90;;;;;;5078926;28;20588;-66
2024/03/01 11:11:20;;;;;;;3.60;1.27;;;10.20;99.90;;;;;;5083482;28;20539;-66
2024/03/01 11:13:48;;;;;;;2.65;1.13;;;10.10;99.90;;;;;;5084262;28;20120;-66
2024/03/01 11:16:18;;;;;;;3.03;1.00;;;9.90;99.90;;;;;;5077563;28;20047;-66
2024/03/01 11:18:49;;;;;;;5.80;0.75;;;9.90;99.90;;;;;;5075449;28;20044;-66
2024/03/01 11:21:19;;;;;;;1.10;0.50;;;10.00;99.90;;;;;;5077825;28;20039;-66
2024/03/01 11:24:08;;;;;;;6.38;1.35;;;10.20;99.90;;;;;;5081390;28;20386;-66
2024/03/01 11:26:42;;;;;;;3.08;0.85;;;10.50;99.90;;;;;;5074996;28;20067;-66
2024/03/01 11:29:14;;;;;;;4.90;1.95;;;10.40;99.90;;;;;;5075059;28;20040;-66
2024/03/01 11:31:43;;;;;;;2.85;1.20;;;10.20;99.90;;;;;;5072674;28;20037;-66
2024/03/01 11:34:32;;;;;;;4.47;0.82;;;10.40;99.90;;;;;;5074394;28;20576;-66
2024/03/01 11:37:14;;;;;;;4.30;0.80;;;10.40;99.90;;;;;;5076243;28;20055;-66
2024/03/01 11:39:55;;;;;;;1.60;0.75;;;10.50;99.90;;;;;;5076656;28;20131;-66
2024/03/01 11:42:34;;;;;;;2.80;0.82;;;10.70;99.90;;;;;;5073407;28;20040;-66
2024/03/01 11:45:10;;;;;;;2.92;0.88;;;11.00;99.90;;;;;;5078533;28;20041;-66
2024/03/01 11:47:58;;;;;;;4.63;0.95;;;11.40;99.90;;;;;;5075472;28;20047;-66
2024/03/01 11:50:49;;;;;;;4.00;1.17;;;11.20;99.90;;;;;;5071337;28;20126;-66
2024/03/01 11:53:39;;;;;;;3.25;1.08;;;11.70;99.90;;;;;;5073142;28;20039;-66
2024/03/01 11:56:13;;;;;;;4.00;0.82;;;11.80;99.90;;;;;;5077365;28;20505;-66
2024/03/01 11:59:24;;;;;;;2.33;0.85;;;11.90;99.90;;;;;;5084631;28;20054;-66
2024/03/01 12:02:03;;;;;;;4.35;0.85;;;11.80;99.90;;;;;;5076016;28;20040;-66
2024/03/01 12:04:50;;;;;;;3.05;1.10;;;11.80;99.90;;;;;;5074843;28;20054;-66
2024/03/01 12:07:28;;;;;;;2.97;1.17;;;11.90;99.90;;;;;;5077514;28;20040;-66
2024/03/01 12:10:08;;;;;;;2.33;0.90;;;12.00;99.90;;;;;;5103639;27;20048;-66
2024/03/01 12:12:44;;;;;;;1.60;0.88;;;12.20;99.90;;;;;;5072369;28;20045;-66
2024/03/01 12:15:18;;;;;;;6.00;1.00;;;12.30;99.90;;;;;;5079291;28;20366;-66
2024/03/01 12:18:26;;;;;;;2.38;0.90;;;12.20;99.90;;;;;;5075817;28;20108;-66
2024/03/01 12:21:31;;;;;;;3.08;1.27;;;12.20;99.90;;;;;;5072078;28;20494;-66
2024/03/01 12:24:13;;;;;;;7.07;2.13;;;12.30;99.90;;;;;;5074894;28;20067;-66
2024/03/01 12:27:08;;;;;;;5.50;2.10;;;12.40;99.90;;;;;;5072008;28;20111;-66
2024/03/01 12:30:01;;;;;;;4.38;1.95;;;12.60;99.90;;;;;;5049753;28;20060;-66
2024/03/01 12:32:40;;;;;;;3.97;1.80;;;12.50;99.90;;;;;;5106282;27;20044;-66
2024/03/01 12:35:19;;;;;;;4.70;1.70;;;12.70;99.90;;;;;;5078708;28;20057;-66
2024/03/01 12:38:17;;;;;;;4.18;2.42;;;12.60;99.90;;;;;;5075594;28;20040;-66
2024/03/01 12:41:12;;;;;;;4.70;2.10;;;12.40;99.90;;;;;;5077989;28;20562;-66
2024/03/01 12:43:54;;;;;;;2.45;1.95;;;12.30;99.90;;;;;;5083358;28;20051;-66
2024/03/01 12:46:40;;;;;;;3.17;2.55;;;12.30;99.90;;;;;;5080167;28;20044;-66
2024/03/01 12:49:44;;;;;;;2.45;1.95;;;12.30;99.90;;;;;;5077503;28;20051;-66
2024/03/01 12:52:31;;;;;;;5.05;2.22;;;12.40;99.90;;;;;;5106048;27;20482;-66
2024/03/01 12:55:12;;;;;;;5.35;2.55;;;12.40;99.90;;;;;;5079460;28;20050;-66
2024/03/01 12:57:57;;;;;;;5.07;2.33;;;12.30;99.90;;;;;;5080405;28;20064;-66
2024/03/01 13:00:27;;;;;;;4.22;1.77;;;12.30;99.90;;;;;;5076461;28;20832;-66
2024/03/01 13:03:30;;;;;;;3.42;2.25;;;12.40;99.90;;;;;;5080024;28;20047;-66
2024/03/01 13:05:56;;;;;;;2.28;1.90;;;12.40;99.90;;;;;;5085062;28;20478;-66
2024/03/01 13:08:33;;;;;;;6.20;3.60;;;12.30;99.90;;;;;;5064102;28;20094;-66
2024/03/01 13:11:03;;;;;;;4.43;2.65;;;12.30;99.90;;;;;;5061420;28;20082;-66
2024/03/01 13:13:31;;;;;;;2.78;2.08;;;12.40;99.90;;;;;;5077031;28;20040;-66